createdAt,value
2023-04-06T00:00:13.001Z,0.00
2023-04-06T00:01:12.767Z,0.00
2023-04-06T00:02:12.791Z,0.00
2023-04-06T00:03:12.884Z,0.00
2023-04-06T00:04:12.775Z,0.00
2023-04-06T00:05:12.701Z,0.00
2023-04-06T00:06:12.677Z,0.00
2023-04-06T00:07:12.671Z,0.00
2023-04-06T00:08:12.652Z,0.00
2023-04-06T00:09:12.637Z,0.00
2023-04-06T00:10:12.630Z,0.00
2023-04-06T00:11:12.607Z,0.00
2023-04-06T00:12:12.596Z,0.00
2023-04-06T00:13:12.592Z,0.00
2023-04-06T00:14:12.568Z,0.00
2023-04-06T00:15:12.570Z,0.00
2023-04-06T00:16:12.575Z,0.00
2023-04-06T00:17:12.564Z,0.00
2023-04-06T00:18:12.537Z,0.00
2023-04-06T00:19:12.489Z,0.00
2023-04-06T00:20:12.510Z,0.00
2023-04-06T00:21:12.475Z,0.00
2023-04-06T00:22:12.488Z,0.00
2023-04-06T00:23:12.448Z,0.00
2023-04-06T00:24:12.418Z,0.00
2023-04-06T00:25:12.407Z,0.00
2023-04-06T00:26:12.386Z,0.00
2023-04-06T00:27:12.379Z,0.00
2023-04-06T00:28:12.372Z,0.00
2023-04-06T00:29:12.339Z,0.00
2023-04-06T00:30:12.325Z,0.00
2023-04-06T00:31:12.306Z,0.00
2023-04-06T00:32:12.324Z,0.00
2023-04-06T00:33:12.422Z,0.00
2023-04-06T00:34:12.274Z,0.00
2023-04-06T00:35:12.256Z,0.00
2023-04-06T00:36:12.506Z,0.00
2023-04-06T00:37:12.226Z,0.00
2023-04-06T00:38:12.202Z,0.00
2023-04-06T00:39:12.202Z,0.00
2023-04-06T00:40:12.169Z,0.00
2023-04-06T00:41:12.157Z,0.00
2023-04-06T00:42:12.145Z,0.00
2023-04-06T00:43:12.139Z,0.00
2023-04-06T00:44:12.110Z,0.00
2023-04-06T00:45:12.209Z,0.00
2023-04-06T00:46:12.301Z,0.00
2023-04-06T00:47:12.087Z,0.00
2023-04-06T00:48:12.050Z,0.00
2023-04-06T00:49:12.075Z,0.00
2023-04-06T00:50:12.263Z,0.00
2023-04-06T00:51:12.022Z,0.00
2023-04-06T00:52:12.024Z,0.00
2023-04-06T00:53:11.994Z,0.00
2023-04-06T00:54:11.982Z,0.00
2023-04-06T00:55:11.951Z,0.00
2023-04-06T00:56:11.986Z,0.00
2023-04-06T00:57:12.134Z,0.00
2023-04-06T00:58:11.904Z,0.00
2023-04-06T00:59:11.930Z,0.00
2023-04-06T01:00:11.887Z,0.00
2023-04-06T01:01:11.893Z,0.00
2023-04-06T01:02:11.851Z,0.00
2023-04-06T01:03:11.840Z,0.00
2023-04-06T01:04:11.817Z,0.00
2023-04-06T01:05:11.843Z,0.00
2023-04-06T01:06:11.782Z,0.00
2023-04-06T01:07:11.775Z,0.00
2023-04-06T01:08:11.804Z,0.00
2023-04-06T01:09:11.754Z,0.00
2023-04-06T01:10:11.724Z,0.00
2023-04-06T01:11:11.729Z,0.00
2023-04-06T01:12:11.706Z,0.00
2023-04-06T01:13:11.681Z,0.00
2023-04-06T01:14:11.667Z,0.00
2023-04-06T01:15:11.655Z,0.00
2023-04-06T01:16:11.686Z,0.00
2023-04-06T01:17:11.632Z,0.00
2023-04-06T01:18:11.616Z,0.00
2023-04-06T01:19:11.598Z,0.00
2023-04-06T01:20:11.579Z,0.00
2023-04-06T01:21:11.572Z,0.00
2023-04-06T01:22:11.552Z,0.00
2023-04-06T01:23:11.532Z,0.00
2023-04-06T01:24:11.558Z,0.00
2023-04-06T01:25:11.528Z,0.00
2023-04-06T01:26:11.482Z,0.00
2023-04-06T01:27:11.476Z,0.00
2023-04-06T01:28:11.665Z,0.00
2023-04-06T01:29:11.460Z,0.00
2023-04-06T01:30:11.429Z,0.00
2023-04-06T01:31:11.440Z,0.00
2023-04-06T01:32:11.399Z,0.00
2023-04-06T01:33:11.385Z,0.00
2023-04-06T01:34:11.373Z,0.00
2023-04-06T01:35:11.372Z,0.00
2023-04-06T01:36:11.344Z,0.00
2023-04-06T01:37:11.347Z,0.00
2023-04-06T01:38:11.330Z,0.00
2023-04-06T01:39:11.401Z,0.00
2023-04-06T01:40:11.321Z,0.00
2023-04-06T01:41:11.289Z,0.00
2023-04-06T01:42:11.262Z,0.00
2023-04-06T01:43:11.253Z,0.00
2023-04-06T01:44:11.237Z,0.00
2023-04-06T01:45:11.195Z,0.00
2023-04-06T01:46:11.465Z,0.00
2023-04-06T01:47:11.195Z,0.00
2023-04-06T01:48:11.207Z,0.00
2023-04-06T01:49:11.184Z,0.00
2023-04-06T01:50:11.173Z,0.00
2023-04-06T01:51:11.190Z,0.00
2023-04-06T01:52:11.123Z,0.00
2023-04-06T01:53:11.090Z,0.00
2023-04-06T01:54:11.096Z,0.00
2023-04-06T01:55:11.059Z,0.00
2023-04-06T01:56:11.085Z,0.00
2023-04-06T01:57:11.033Z,0.00
2023-04-06T01:58:11.049Z,0.00
2023-04-06T01:59:11.549Z,0.00
2023-04-06T02:00:11.013Z,0.00
2023-04-06T02:01:11.044Z,0.00
2023-04-06T02:02:11.022Z,0.00
2023-04-06T02:03:11.052Z,0.00
2023-04-06T02:04:10.936Z,0.00
2023-04-06T02:05:10.926Z,0.00
2023-04-06T02:06:10.894Z,0.00
2023-04-06T02:07:11.016Z,0.00
2023-04-06T02:08:10.905Z,0.00
2023-04-06T02:09:11.019Z,0.00
2023-04-06T02:10:10.870Z,0.00
2023-04-06T02:11:10.925Z,0.00
2023-04-06T02:12:10.874Z,0.00
2023-04-06T02:13:10.816Z,0.00
2023-04-06T02:14:10.999Z,0.00
2023-04-06T02:15:10.754Z,0.00
2023-04-06T02:16:10.766Z,0.00
2023-04-06T02:17:10.966Z,0.00
2023-04-06T02:18:10.810Z,0.00
2023-04-06T02:19:10.841Z,0.00
2023-04-06T02:20:10.721Z,0.00
2023-04-06T02:21:10.683Z,0.00
2023-04-06T02:22:10.684Z,0.00
2023-04-06T02:23:10.649Z,0.00
2023-04-06T02:24:10.653Z,0.00
2023-04-06T02:25:10.611Z,0.00
2023-04-06T02:26:10.604Z,0.00
2023-04-06T02:27:10.578Z,0.00
2023-04-06T02:28:10.633Z,0.00
2023-04-06T02:29:10.572Z,0.00
2023-04-06T02:30:10.544Z,0.00
2023-04-06T02:31:10.526Z,0.00
2023-04-06T02:32:10.559Z,0.00
2023-04-06T02:33:10.490Z,0.00
2023-04-06T02:34:10.472Z,0.00
2023-04-06T02:35:10.455Z,0.00
2023-04-06T02:36:10.451Z,0.00
2023-04-06T02:37:10.448Z,0.00
2023-04-06T02:38:10.431Z,0.00
2023-04-06T02:39:10.534Z,0.00
2023-04-06T02:40:10.403Z,0.00
2023-04-06T02:41:10.369Z,0.00
2023-04-06T02:42:10.353Z,0.00
2023-04-06T02:43:10.327Z,0.00
2023-04-06T02:44:10.341Z,0.00
2023-04-06T02:45:10.294Z,0.00
2023-04-06T02:46:10.364Z,0.00
2023-04-06T02:47:10.252Z,0.00
2023-04-06T02:48:10.245Z,0.00
2023-04-06T02:49:10.463Z,0.00
2023-04-06T02:50:10.242Z,0.00
2023-04-06T02:51:10.185Z,0.00
2023-04-06T02:52:10.174Z,0.00
2023-04-06T02:53:10.193Z,0.00
2023-04-06T02:54:10.158Z,0.00
2023-04-06T02:55:10.178Z,0.00
2023-04-06T02:56:10.182Z,0.00
2023-04-06T02:57:10.134Z,0.00
2023-04-06T02:58:10.113Z,0.00
2023-04-06T02:59:10.256Z,0.00
2023-04-06T03:00:10.109Z,0.00
2023-04-06T03:01:10.088Z,0.00
2023-04-06T03:02:10.050Z,0.00
2023-04-06T03:03:10.133Z,0.00
2023-04-06T03:04:10.005Z,0.00
2023-04-06T03:05:09.994Z,0.00
2023-04-06T03:06:09.980Z,0.00
2023-04-06T03:07:10.006Z,0.00
2023-04-06T03:08:09.948Z,0.00
2023-04-06T03:09:10.129Z,0.00
2023-04-06T03:10:09.908Z,0.00
2023-04-06T03:11:09.926Z,0.00
2023-04-06T03:12:10.320Z,0.00
2023-04-06T03:13:09.888Z,0.00
2023-04-06T03:14:09.857Z,0.00
2023-04-06T03:15:09.827Z,0.00
2023-04-06T03:16:09.896Z,0.00
2023-04-06T03:17:09.819Z,0.00
2023-04-06T03:18:09.794Z,0.00
2023-04-06T03:19:09.935Z,0.00
2023-04-06T03:20:09.768Z,0.00
2023-04-06T03:21:09.748Z,0.00
2023-04-06T03:22:09.731Z,0.00
2023-04-06T03:23:09.683Z,0.00
2023-04-06T03:24:09.693Z,0.00
2023-04-06T03:25:09.675Z,0.00
2023-04-06T03:26:09.680Z,0.00
2023-04-06T03:27:09.656Z,0.00
2023-04-06T03:28:09.631Z,0.00
2023-04-06T03:29:09.928Z,0.00
2023-04-06T03:30:09.632Z,0.00
2023-04-06T03:31:09.623Z,0.00
2023-04-06T03:32:11.079Z,0.00
2023-04-06T03:33:09.548Z,0.00
2023-04-06T03:34:09.560Z,0.00
2023-04-06T03:35:09.526Z,0.00
2023-04-06T03:36:09.542Z,0.00
2023-04-06T03:37:10.661Z,0.00
2023-04-06T03:38:09.591Z,0.00
2023-04-06T03:39:09.618Z,0.00
2023-04-06T03:40:09.561Z,0.00
2023-04-06T03:41:09.520Z,0.00
2023-04-06T03:42:09.415Z,0.00
2023-04-06T03:43:09.406Z,0.00
2023-04-06T03:44:09.431Z,0.00
2023-04-06T03:45:09.378Z,0.00
2023-04-06T03:46:09.345Z,0.00
2023-04-06T03:47:09.317Z,0.00
2023-04-06T03:48:09.379Z,0.00
2023-04-06T03:49:09.637Z,0.00
2023-04-06T03:50:09.271Z,0.00
2023-04-06T03:51:09.318Z,0.00
2023-04-06T03:52:09.238Z,0.00
2023-04-06T03:53:09.243Z,0.00
2023-04-06T03:54:09.416Z,0.00
2023-04-06T03:55:09.199Z,0.00
2023-04-06T03:56:09.208Z,0.00
2023-04-06T03:57:09.193Z,0.00
2023-04-06T03:58:09.175Z,0.00
2023-04-06T03:59:09.446Z,0.00
2023-04-06T04:00:09.145Z,0.00
2023-04-06T04:01:09.093Z,0.00
2023-04-06T04:02:09.137Z,0.00
2023-04-06T04:03:09.131Z,0.00
2023-04-06T04:04:09.078Z,0.00
2023-04-06T04:05:09.324Z,0.00
2023-04-06T04:06:09.041Z,0.00
2023-04-06T04:07:09.024Z,0.00
2023-04-06T04:08:09.012Z,0.00
2023-04-06T04:09:09.428Z,0.00
2023-04-06T04:10:08.966Z,0.00
2023-04-06T04:11:08.958Z,0.00
2023-04-06T04:12:08.946Z,0.00
2023-04-06T04:13:08.954Z,0.00
2023-04-06T04:14:08.892Z,0.00
2023-04-06T04:15:08.897Z,0.00
2023-04-06T04:16:08.893Z,0.00
2023-04-06T04:17:08.830Z,0.00
2023-04-06T04:18:08.874Z,0.00
2023-04-06T04:19:09.291Z,0.00
2023-04-06T04:20:08.826Z,0.00
2023-04-06T04:21:08.766Z,0.00
2023-04-06T04:22:08.781Z,0.00
2023-04-06T04:23:08.776Z,0.00
2023-04-06T04:24:08.763Z,0.00
2023-04-06T04:25:08.703Z,0.00
2023-04-06T04:26:08.727Z,0.00
2023-04-06T04:27:08.688Z,0.00
2023-04-06T04:28:08.734Z,0.00
2023-04-06T04:29:08.874Z,0.00
2023-04-06T04:30:08.716Z,0.00
2023-04-06T04:31:08.649Z,0.00
2023-04-06T04:32:08.655Z,0.00
2023-04-06T04:33:08.778Z,0.00
2023-04-06T04:34:08.612Z,0.00
2023-04-06T04:35:08.595Z,0.00
2023-04-06T04:36:08.627Z,0.00
2023-04-06T04:37:08.579Z,0.00
2023-04-06T04:38:08.591Z,0.00
2023-04-06T04:39:08.692Z,0.00
2023-04-06T04:40:08.538Z,0.00
2023-04-06T04:41:08.486Z,0.00
2023-04-06T04:42:08.481Z,0.00
2023-04-06T04:43:08.479Z,5.63
2023-04-06T04:44:08.477Z,5.63
2023-04-06T04:45:08.427Z,5.63
2023-04-06T04:46:08.484Z,5.63
2023-04-06T04:47:08.513Z,5.63
2023-04-06T04:48:08.463Z,5.63
2023-04-06T04:49:08.660Z,5.63
2023-04-06T04:50:08.381Z,5.63
2023-04-06T04:51:08.333Z,5.63
2023-04-06T04:52:08.379Z,5.63
2023-04-06T04:53:08.330Z,11.25
2023-04-06T04:54:08.312Z,11.25
2023-04-06T04:55:08.279Z,11.25
2023-04-06T04:56:08.272Z,11.25
2023-04-06T04:57:08.464Z,11.25
2023-04-06T04:58:08.201Z,11.25
2023-04-06T04:59:08.472Z,11.25
2023-04-06T05:00:08.206Z,16.88
2023-04-06T05:01:08.220Z,22.50
2023-04-06T05:02:08.248Z,28.13
2023-04-06T05:03:08.257Z,22.50
2023-04-06T05:04:08.165Z,22.50
2023-04-06T05:05:08.147Z,22.50
2023-04-06T05:06:08.105Z,22.50
2023-04-06T05:07:08.063Z,22.50
2023-04-06T05:08:08.082Z,22.50
2023-04-06T05:09:08.114Z,22.50
2023-04-06T05:10:08.045Z,28.13
2023-04-06T05:11:08.018Z,28.13
2023-04-06T05:12:07.997Z,33.75
2023-04-06T05:13:07.999Z,33.75
2023-04-06T05:14:07.990Z,61.88
2023-04-06T05:15:07.965Z,95.63
2023-04-06T05:16:08.067Z,129.38
2023-04-06T05:17:07.960Z,163.13
2023-04-06T05:18:07.951Z,191.25
2023-04-06T05:19:08.263Z,208.13
2023-04-06T05:20:07.861Z,129.38
2023-04-06T05:21:08.049Z,61.88
2023-04-06T05:22:07.861Z,56.25
2023-04-06T05:23:08.046Z,56.25
2023-04-06T05:24:07.848Z,56.25
2023-04-06T05:25:07.809Z,56.25
2023-04-06T05:26:07.784Z,61.88
2023-04-06T05:27:07.810Z,61.88
2023-04-06T05:28:07.741Z,61.88
2023-04-06T05:29:07.974Z,61.88
2023-04-06T05:30:07.738Z,67.50
2023-04-06T05:31:07.818Z,67.50
2023-04-06T05:32:07.694Z,78.75
2023-04-06T05:33:07.808Z,73.13
2023-04-06T05:34:07.673Z,73.13
2023-04-06T05:35:07.689Z,78.75
2023-04-06T05:36:07.733Z,78.75
2023-04-06T05:37:07.704Z,78.75
2023-04-06T05:38:07.632Z,84.38
2023-04-06T05:39:07.936Z,84.38
2023-04-06T05:40:07.586Z,90.00
2023-04-06T05:41:07.569Z,90.00
2023-04-06T05:42:07.604Z,90.00
2023-04-06T05:43:07.548Z,95.63
2023-04-06T05:44:07.520Z,101.25
2023-04-06T05:45:07.475Z,95.63
2023-04-06T05:46:07.538Z,101.25
2023-04-06T05:47:07.522Z,101.25
2023-04-06T05:48:07.560Z,101.25
2023-04-06T05:49:07.498Z,106.88
2023-04-06T05:50:07.431Z,106.88
2023-04-06T05:51:07.440Z,106.88
2023-04-06T05:52:07.418Z,112.50
2023-04-06T05:53:07.371Z,112.50
2023-04-06T05:54:07.357Z,112.50
2023-04-06T05:55:09.526Z,118.13
2023-04-06T05:56:07.376Z,118.13
2023-04-06T05:57:07.318Z,118.13
2023-04-06T05:58:07.325Z,123.75
2023-04-06T05:59:07.609Z,123.75
2023-04-06T06:00:07.325Z,123.75
2023-04-06T06:01:07.268Z,123.75
2023-04-06T06:02:07.291Z,123.75
2023-04-06T06:03:07.436Z,123.75
2023-04-06T06:04:07.245Z,129.38
2023-04-06T06:05:07.264Z,129.38
2023-04-06T06:06:07.212Z,129.38
2023-04-06T06:07:07.178Z,135.00
2023-04-06T06:08:07.183Z,135.00
2023-04-06T06:09:07.468Z,135.00
2023-04-06T06:10:07.134Z,135.00
2023-04-06T06:11:07.104Z,140.63
2023-04-06T06:12:07.130Z,140.63
2023-04-06T06:13:07.091Z,146.25
2023-04-06T06:15:07.051Z,146.25
2023-04-06T06:16:07.063Z,146.25
2023-04-06T06:17:07.041Z,151.88
2023-04-06T06:18:07.124Z,151.88
2023-04-06T06:19:09.686Z,151.88
2023-04-06T06:20:07.004Z,157.50
2023-04-06T06:21:07.014Z,157.50
2023-04-06T06:22:07.796Z,157.50
2023-04-06T06:23:06.946Z,163.13
2023-04-06T06:24:06.926Z,163.13
2023-04-06T06:25:06.917Z,163.13
2023-04-06T06:26:06.908Z,168.75
2023-04-06T06:27:06.883Z,168.75
2023-04-06T06:28:06.957Z,168.75
2023-04-06T06:29:07.410Z,174.38
2023-04-06T06:30:06.897Z,174.38
2023-04-06T06:31:06.862Z,174.38
2023-04-06T06:32:06.944Z,180.00
2023-04-06T06:33:06.976Z,180.00
2023-04-06T06:34:06.824Z,180.00
2023-04-06T06:35:06.807Z,185.63
2023-04-06T06:36:06.809Z,185.63
2023-04-06T06:37:06.759Z,185.63
2023-04-06T06:38:06.814Z,185.63
2023-04-06T06:39:07.012Z,185.63
2023-04-06T06:40:06.820Z,191.25
2023-04-06T06:41:06.702Z,191.25
2023-04-06T06:42:06.763Z,191.25
2023-04-06T06:43:06.696Z,196.88
2023-04-06T06:44:07.075Z,196.88
2023-04-06T06:45:06.731Z,208.13
2023-04-06T06:46:06.780Z,247.50
2023-04-06T06:47:06.618Z,219.38
2023-04-06T06:48:06.677Z,202.50
2023-04-06T06:49:06.617Z,202.50
2023-04-06T06:50:06.658Z,208.13
2023-04-06T06:51:06.628Z,208.13
2023-04-06T06:52:06.689Z,208.13
2023-04-06T06:53:06.539Z,208.13
2023-04-06T06:54:06.938Z,208.13
2023-04-06T06:55:06.576Z,208.13
2023-04-06T06:56:06.529Z,208.13
2023-04-06T06:57:06.511Z,208.13
2023-04-06T06:58:06.564Z,208.13
2023-04-06T06:59:06.566Z,208.13
2023-04-06T07:00:06.688Z,213.75
2023-04-06T07:01:06.536Z,213.75
2023-04-06T07:02:06.435Z,213.75
2023-04-06T07:03:06.462Z,219.38
2023-04-06T07:04:06.502Z,219.38
2023-04-06T07:05:15.906Z,225.00
2023-04-06T07:06:06.373Z,225.00
2023-04-06T07:07:06.801Z,225.00
2023-04-06T07:08:06.345Z,230.63
2023-04-06T07:09:06.378Z,241.88
2023-04-06T07:10:06.319Z,258.75
2023-04-06T07:11:06.295Z,337.50
2023-04-06T07:12:06.292Z,365.63
2023-04-06T07:13:06.353Z,331.88
2023-04-06T07:14:06.283Z,320.63
2023-04-06T07:15:06.259Z,247.50
2023-04-06T07:16:06.375Z,241.88
2023-04-06T07:17:06.414Z,241.88
2023-04-06T07:18:06.283Z,247.50
2023-04-06T07:19:06.230Z,247.50
2023-04-06T07:20:06.243Z,247.50
2023-04-06T07:21:06.218Z,247.50
2023-04-06T07:22:06.171Z,253.13
2023-04-06T07:23:06.154Z,253.13
2023-04-06T07:24:06.265Z,253.13
2023-04-06T07:25:06.124Z,253.13
2023-04-06T07:26:06.128Z,258.75
2023-04-06T07:27:06.139Z,253.13
2023-04-06T07:28:06.319Z,264.38
2023-04-06T07:29:06.114Z,556.88
2023-04-06T07:30:06.074Z,1231.88
2023-04-06T07:31:06.088Z,1777.50
2023-04-06T07:32:06.217Z,2002.50
2023-04-06T07:33:06.028Z,2025.00
2023-04-06T07:34:06.290Z,2115.00
2023-04-06T07:35:06.069Z,2193.75
2023-04-06T07:36:06.056Z,2250.00
2023-04-06T07:37:06.028Z,2266.88
2023-04-06T07:38:05.970Z,2233.13
2023-04-06T07:39:06.019Z,2126.25
2023-04-06T07:40:05.986Z,1940.63
2023-04-06T07:41:05.940Z,1715.63
2023-04-06T07:42:05.947Z,1620.00
2023-04-06T07:43:05.941Z,1687.50
2023-04-06T07:44:05.967Z,1777.50
2023-04-06T07:45:05.911Z,1833.75
2023-04-06T07:46:05.968Z,1878.75
2023-04-06T07:47:05.911Z,1935.00
2023-04-06T07:48:05.952Z,1968.75
2023-04-06T07:49:05.888Z,2013.75
2023-04-06T07:50:05.868Z,2070.00
2023-04-06T07:51:05.885Z,2126.25
2023-04-06T07:52:05.854Z,2120.63
2023-04-06T07:53:05.854Z,1215.00
2023-04-06T07:54:05.955Z,427.50
2023-04-06T07:55:05.829Z,331.88
2023-04-06T07:56:05.800Z,331.88
2023-04-06T07:57:05.795Z,568.13
2023-04-06T07:58:05.818Z,1462.50
2023-04-06T07:59:05.834Z,2064.38
2023-04-06T08:00:05.816Z,2131.88
2023-04-06T08:01:05.787Z,2115.00
2023-04-06T08:02:05.851Z,2120.63
2023-04-06T08:03:05.854Z,2115.00
2023-04-06T08:04:05.841Z,2120.63
2023-04-06T08:05:05.760Z,2131.88
2023-04-06T08:06:05.788Z,2148.75
2023-04-06T08:07:05.762Z,2210.63
2023-04-06T08:08:05.761Z,2272.50
2023-04-06T08:09:05.745Z,2300.63
2023-04-06T08:10:05.726Z,2261.25
2023-04-06T08:11:05.736Z,2188.13
2023-04-06T08:12:05.727Z,2154.38
2023-04-06T08:13:05.710Z,2120.63
2023-04-06T08:14:05.730Z,2086.88
2023-04-06T08:15:05.698Z,2002.50
2023-04-06T08:16:05.793Z,1867.50
2023-04-06T08:17:06.502Z,1760.63
2023-04-06T08:18:06.123Z,1732.50
2023-04-06T08:19:05.750Z,1732.50
2023-04-06T08:20:05.704Z,1743.75
2023-04-06T08:21:05.677Z,1816.88
2023-04-06T08:22:05.658Z,1929.38
2023-04-06T08:23:05.658Z,1980.00
2023-04-06T08:24:05.677Z,2036.25
2023-04-06T08:25:05.655Z,2115.00
2023-04-06T08:26:05.652Z,2171.25
2023-04-06T08:27:05.636Z,2143.13
2023-04-06T08:28:05.651Z,2092.50
2023-04-06T08:29:05.626Z,2109.38
2023-04-06T08:30:05.624Z,2210.63
2023-04-06T08:31:05.641Z,2266.88
2023-04-06T08:32:05.627Z,2233.13
2023-04-06T08:33:05.655Z,2154.38
2023-04-06T08:34:05.684Z,2036.25
2023-04-06T08:35:05.594Z,1991.25
2023-04-06T08:36:05.725Z,1991.25
2023-04-06T08:37:05.592Z,2030.63
2023-04-06T08:38:05.582Z,2041.88
2023-04-06T08:39:05.569Z,2041.88
2023-04-06T08:40:05.583Z,2041.88
2023-04-06T08:41:08.020Z,2081.25
2023-04-06T08:42:05.550Z,2109.38
2023-04-06T08:43:05.555Z,2131.88
2023-04-06T08:44:05.578Z,2115.00
2023-04-06T08:45:05.587Z,1794.38
2023-04-06T08:46:05.554Z,765.00
2023-04-06T08:47:05.548Z,331.88
2023-04-06T08:48:05.596Z,343.13
2023-04-06T08:49:05.525Z,500.63
2023-04-06T08:50:05.548Z,1299.38
2023-04-06T08:51:05.516Z,1828.13
2023-04-06T08:52:05.588Z,1861.88
2023-04-06T08:53:05.523Z,1878.75
2023-04-06T08:54:05.580Z,1653.75
2023-04-06T08:55:05.532Z,1260.00
2023-04-06T08:56:05.498Z,759.38
2023-04-06T08:57:05.526Z,399.38
2023-04-06T08:58:05.553Z,315.00
2023-04-06T08:59:05.516Z,303.75
2023-04-06T09:00:05.505Z,298.13
2023-04-06T09:01:05.485Z,315.00
2023-04-06T09:02:05.500Z,286.88
2023-04-06T09:03:05.563Z,281.25
2023-04-06T09:04:08.254Z,281.25
2023-04-06T09:05:05.426Z,281.25
2023-04-06T09:06:05.636Z,281.25
2023-04-06T09:07:05.419Z,281.25
2023-04-06T09:08:05.501Z,281.25
2023-04-06T09:09:05.453Z,275.63
2023-04-06T09:10:05.442Z,275.63
2023-04-06T09:11:05.399Z,275.63
2023-04-06T09:12:05.382Z,275.63
2023-04-06T09:13:05.420Z,275.63
2023-04-06T09:14:05.427Z,275.63
2023-04-06T09:15:05.401Z,270.00
2023-04-06T09:16:05.429Z,270.00
2023-04-06T09:17:05.368Z,270.00
2023-04-06T09:18:05.410Z,264.38
2023-04-06T09:19:05.377Z,264.38
2023-04-06T09:20:05.553Z,264.38
2023-04-06T09:21:05.331Z,258.75
2023-04-06T09:22:05.554Z,258.75
2023-04-06T09:23:05.290Z,258.75
2023-04-06T09:24:05.460Z,258.75
2023-04-06T09:25:05.297Z,258.75
2023-04-06T09:26:05.300Z,258.75
2023-04-06T09:27:05.286Z,258.75
2023-04-06T09:28:05.286Z,258.75
2023-04-06T09:29:05.284Z,258.75
2023-04-06T09:30:05.273Z,253.13
2023-04-06T09:31:05.498Z,253.13
2023-04-06T09:32:05.266Z,253.13
2023-04-06T09:33:05.358Z,253.13
2023-04-06T09:34:05.244Z,258.75
2023-04-06T09:35:05.455Z,253.13
2023-04-06T09:36:05.278Z,253.13
2023-04-06T09:37:05.183Z,253.13
2023-04-06T09:38:05.219Z,253.13
2023-04-06T09:39:05.177Z,247.50
2023-04-06T09:40:05.217Z,247.50
2023-04-06T09:41:05.175Z,247.50
2023-04-06T09:42:05.168Z,247.50
2023-04-06T09:43:05.127Z,247.50
2023-04-06T09:44:05.167Z,247.50
2023-04-06T09:45:05.119Z,247.50
2023-04-06T09:46:05.147Z,247.50
2023-04-06T09:47:05.179Z,247.50
2023-04-06T09:48:05.302Z,247.50
2023-04-06T09:49:05.108Z,247.50
2023-04-06T09:50:05.099Z,241.88
2023-04-06T09:51:05.072Z,241.88
2023-04-06T09:52:05.050Z,241.88
2023-04-06T09:53:05.088Z,241.88
2023-04-06T09:54:05.093Z,241.88
2023-04-06T09:55:05.069Z,241.88
2023-04-06T09:56:05.074Z,236.25
2023-04-06T09:57:05.062Z,236.25
2023-04-06T09:58:05.039Z,236.25
2023-04-06T09:59:05.142Z,236.25
2023-04-06T10:00:05.040Z,236.25
2023-04-06T10:01:04.987Z,236.25
2023-04-06T10:02:05.394Z,236.25
2023-04-06T10:03:07.726Z,230.63
2023-04-06T10:04:05.114Z,230.63
2023-04-06T10:05:04.983Z,230.63
2023-04-06T10:06:04.941Z,230.63
2023-04-06T10:07:04.938Z,230.63
2023-04-06T10:08:04.933Z,230.63
2023-04-06T10:09:04.891Z,230.63
2023-04-06T10:10:04.899Z,230.63
2023-04-06T10:11:04.887Z,225.00
2023-04-06T10:12:04.916Z,225.00
2023-04-06T10:13:04.910Z,225.00
2023-04-06T10:14:04.855Z,225.00
2023-04-06T10:15:04.850Z,225.00
2023-04-06T10:16:04.864Z,225.00
2023-04-06T10:17:04.830Z,225.00
2023-04-06T10:18:04.903Z,219.38
2023-04-06T10:19:04.831Z,219.38
2023-04-06T10:20:04.805Z,219.38
2023-04-06T10:21:04.807Z,219.38
2023-04-06T10:22:04.778Z,219.38
2023-04-06T10:23:04.769Z,219.38
2023-04-06T10:24:04.751Z,219.38
2023-04-06T10:25:04.762Z,213.75
2023-04-06T10:26:04.762Z,213.75
2023-04-06T10:27:04.763Z,213.75
2023-04-06T10:28:04.755Z,213.75
2023-04-06T10:29:04.727Z,208.13
2023-04-06T10:30:04.697Z,208.13
2023-04-06T10:31:04.702Z,208.13
2023-04-06T10:32:04.778Z,208.13
2023-04-06T10:33:04.780Z,208.13
2023-04-06T10:34:04.681Z,208.13
2023-04-06T10:35:04.690Z,208.13
2023-04-06T10:36:04.712Z,208.13
2023-04-06T10:37:04.676Z,208.13
2023-04-06T10:38:04.649Z,213.75
2023-04-06T10:39:04.629Z,208.13
2023-04-06T10:40:04.654Z,208.13
2023-04-06T10:41:04.645Z,208.13
2023-04-06T10:42:04.595Z,202.50
2023-04-06T10:43:04.650Z,202.50
2023-04-06T10:44:04.639Z,202.50
2023-04-06T10:45:04.594Z,196.88
2023-04-06T10:46:04.670Z,196.88
2023-04-06T10:47:04.567Z,196.88
2023-04-06T10:48:04.612Z,196.88
2023-04-06T10:49:04.586Z,196.88
2023-04-06T10:50:04.541Z,196.88
2023-04-06T10:51:04.554Z,196.88
2023-04-06T10:52:04.547Z,191.25
2023-04-06T10:53:04.522Z,191.25
2023-04-06T10:54:04.504Z,191.25
2023-04-06T10:55:04.509Z,191.25
2023-04-06T10:56:04.483Z,191.25
2023-04-06T10:57:04.523Z,191.25
2023-04-06T10:58:04.473Z,185.63
2023-04-06T10:59:04.515Z,185.63
2023-04-06T11:00:04.489Z,185.63
2023-04-06T11:01:04.469Z,185.63
2023-04-06T11:02:04.423Z,180.00
2023-04-06T11:03:04.473Z,180.00
2023-04-06T11:04:04.514Z,180.00
2023-04-06T11:05:04.405Z,180.00
2023-04-06T11:06:04.430Z,180.00
2023-04-06T11:07:04.423Z,180.00
2023-04-06T11:08:04.404Z,180.00
2023-04-06T11:09:04.416Z,180.00
2023-04-06T11:10:16.643Z,180.00
2023-04-06T11:11:04.390Z,180.00
2023-04-06T11:12:04.459Z,180.00
2023-04-06T11:13:04.312Z,174.38
2023-04-06T11:14:04.330Z,174.38
2023-04-06T11:15:04.301Z,174.38
2023-04-06T11:16:04.320Z,174.38
2023-04-06T11:17:04.394Z,174.38
2023-04-06T11:18:04.384Z,180.00
2023-04-06T11:19:04.271Z,174.38
2023-04-06T11:20:04.265Z,174.38
2023-04-06T11:21:04.252Z,174.38
2023-04-06T11:22:04.236Z,174.38
2023-04-06T11:23:04.223Z,174.38
2023-04-06T11:24:04.237Z,174.38
2023-04-06T11:25:04.222Z,174.38
2023-04-06T11:26:04.237Z,168.75
2023-04-06T11:27:04.203Z,168.75
2023-04-06T11:28:04.188Z,168.75
2023-04-06T11:29:04.176Z,174.38
2023-04-06T11:30:04.387Z,168.75
2023-04-06T11:31:04.199Z,168.75
2023-04-06T11:32:04.242Z,168.75
2023-04-06T11:33:04.199Z,163.13
2023-04-06T11:34:04.136Z,163.13
2023-04-06T11:35:04.122Z,163.13
2023-04-06T11:36:04.168Z,163.13
2023-04-06T11:37:04.117Z,163.13
2023-04-06T11:38:04.115Z,163.13
2023-04-06T11:39:04.100Z,163.13
2023-04-06T11:40:04.100Z,163.13
2023-04-06T11:41:04.076Z,157.50
2023-04-06T11:42:05.544Z,157.50
2023-04-06T11:43:04.112Z,157.50
2023-04-06T11:44:04.090Z,157.50
2023-04-06T11:45:04.043Z,157.50
2023-04-06T11:46:04.120Z,157.50
2023-04-06T11:47:04.031Z,157.50
2023-04-06T11:48:04.100Z,157.50
2023-04-06T11:49:04.097Z,157.50
2023-04-06T11:50:04.006Z,157.50
2023-04-06T11:51:04.010Z,157.50
2023-04-06T11:52:04.016Z,157.50
2023-04-06T11:53:04.079Z,157.50
2023-04-06T11:54:04.009Z,151.88
2023-04-06T11:55:03.993Z,151.88
2023-04-06T11:56:03.986Z,151.88
2023-04-06T11:57:03.946Z,151.88
2023-04-06T11:58:03.987Z,151.88
2023-04-06T11:59:03.972Z,151.88
2023-04-06T12:00:03.986Z,151.88
2023-04-06T12:01:03.900Z,151.88
2023-04-06T12:02:03.957Z,151.88
2023-04-06T12:03:03.967Z,151.88
2023-04-06T12:04:04.149Z,151.88
2023-04-06T12:05:03.895Z,146.25
2023-04-06T12:06:03.866Z,146.25
2023-04-06T12:07:03.888Z,146.25
2023-04-06T12:08:04.069Z,146.25
2023-04-06T12:09:03.880Z,146.25
2023-04-06T12:10:03.913Z,146.25
2023-04-06T12:11:03.847Z,146.25
2023-04-06T12:12:03.843Z,146.25
2023-04-06T12:13:03.848Z,146.25
2023-04-06T12:14:03.800Z,146.25
2023-04-06T12:15:03.809Z,146.25
2023-04-06T12:16:03.814Z,146.25
2023-04-06T12:17:03.763Z,146.25
2023-04-06T12:18:03.841Z,146.25
2023-04-06T12:19:03.769Z,146.25
2023-04-06T12:20:09.463Z,146.25
2023-04-06T12:21:03.735Z,146.25
2023-04-06T12:22:03.730Z,146.25
2023-04-06T12:23:03.752Z,146.25
2023-04-06T12:24:03.715Z,146.25
2023-04-06T12:25:03.713Z,146.25
2023-04-06T12:26:03.692Z,146.25
2023-04-06T12:27:09.904Z,140.63
2023-04-06T12:28:03.671Z,140.63
2023-04-06T12:29:03.688Z,140.63
2023-04-06T12:30:03.690Z,140.63
2023-04-06T12:31:03.721Z,140.63
2023-04-06T12:32:03.693Z,140.63
2023-04-06T12:33:03.768Z,140.63
2023-04-06T12:34:03.749Z,140.63
2023-04-06T12:35:03.642Z,140.63
2023-04-06T12:36:03.655Z,140.63
2023-04-06T12:37:03.671Z,140.63
2023-04-06T12:38:03.613Z,140.63
2023-04-06T12:39:03.627Z,140.63
2023-04-06T12:40:03.589Z,140.63
2023-04-06T12:41:03.589Z,140.63
2023-04-06T12:42:03.821Z,140.63
2023-04-06T12:43:03.620Z,140.63
2023-04-06T12:44:03.558Z,140.63
2023-04-06T12:45:03.539Z,140.63
2023-04-06T12:46:03.563Z,140.63